Cedar City, Utah Weather observations

Data are for observation ending at time listed.
 Day   Time    Ave.   Ave.  Ave.  Vector   Max.   Stn.    Total    Solar   Ave.  
  of    of     Air    Rel.  Wind   Wind    Wind   Baro.  Precip.   Rad.    Soil  
Year   Day     Temp.  Hum.  Speed  Dir.    Gust   Pres.                    Temp. 
2014   (MST)    F      %     mph   deg.    mph     mb.     in.     W/m2     F   
------------------------------------------------------------------------------
 298    2:50   48.1    48    0.7    81      2.3   828.8    0.00       0    50.4
 298    3:00   47.8    52    1.3   177      4.4   828.9    0.00       0    50.4
 298    3:10   47.6    51    1.4   108      2.9   828.9    0.00       0    50.4
 298    3:20   48.9    48    2.5   108      4.5   828.7    0.00       0    50.4
 298    3:30   49.8    47    1.1   199      2.3   828.7    0.00       0    50.4
 298    3:40   48.9    49    0.8   324      2.5   828.6    0.00       0    50.4
 298    3:50   48.6    50    1.1   191      3.4   828.5    0.00       0    50.3
 298    4:00   48.1    51    0.8   132      2.9   828.5    0.00       0    50.3
 298    4:10   47.8    53    1.7   182      3.8   828.5    0.00       0    50.3
 298    4:20   47.0    54    1.2   145      3.8   828.5    0.00       0    50.3
 298    4:30   47.6    53    0.7   190      2.6   828.5    0.00       0    50.2
 298    4:40   47.8    54    1.7   190      5.0   828.5    0.00       0    50.2
 298    4:50   51.7    46    2.3   264      5.2   828.5    0.00       0    50.2
 298    5:00   51.9    47    1.1   168      3.6   828.5    0.00       0    50.2
 298    5:10   50.0    51    2.1   143      4.1   828.5    0.00       0    50.1
 298    5:20   50.5    50    0.9    66      3.4   828.4    0.00       0    50.1
 298    5:30   50.8    49    1.8    75      3.9   828.4    0.00       0    50.1
 298    5:40   52.8    48    1.2    37      3.9   828.4    0.00       0    50.0
 298    5:50   53.8    46    2.3   276      5.4   828.5    0.00       0    50.0
 298    6:00   53.9    44    2.5   273      6.5   828.5    0.00       0    50.0
 298    6:10   53.3    46    2.2   150      6.3   828.6    0.00       0    49.9
 298    6:20   52.5    48    1.4   126      4.7   828.5    0.00       0    49.9
 298    6:30   51.4    51    1.7   120      3.7   828.5    0.00       0    49.9
 298    6:40   52.0    52    2.0   203      7.0   828.4    0.00       0    49.9
 298    6:50   55.8    47    1.0   174      3.7   828.6    0.00       1    49.9
 298    7:00   57.8    44    1.7   160      7.3   828.6    0.00       6    49.8
 298    7:10   58.7    42    2.5   132      7.6   828.6    0.00       7    49.8
 298    7:20   58.9    42    2.1   160      5.9   828.6    0.00      13    49.8
 298    7:30   58.9    42    1.0   155      4.4   828.6    0.00      15    49.8
 298    7:40   59.6    41    1.8   158      5.0   828.5    0.00      99    49.8
 298    7:50   61.6    38    3.1   182     10.1   828.6    0.00     141    49.8
 298    8:00   62.8    36    2.4   183      7.7   828.6    0.00     171    49.8
 298    8:10   63.6    36    2.1   170      9.3   828.6    0.00     201    49.8
 298    8:20   64.5    35    2.5   191      9.5   828.5    0.00     234    49.8
 298    8:30   59.1    38    3.3   331      8.4   828.6    0.00     267    49.8
 298    8:40   58.0    40    3.3    67      6.4   828.6    0.00     304    49.8
 298    8:50   59.6    38    2.1    41      5.5   828.6    0.00     332    49.8
 298    9:00   60.9    37    2.6    38      4.8   828.6    0.00     365    49.8
 298    9:10   61.9    36    1.9     2      4.4   828.3    0.00     389    49.8
 298    9:20   63.4    37    2.5   132      6.8   828.3    0.00     444    49.8
 298    9:30   65.2    33    3.8   120     10.4   827.8    0.00     512    49.8
 298    9:40   67.5    32    3.8   193      9.8   827.8    0.00     504    49.8
 298    9:50   68.3    30    4.8   190     11.8   827.6    0.00     548    49.9
 298   10:00   68.0    31    5.6   184     16.9   827.5    0.00     350    49.9
 298   10:10   65.7    32    5.0   183     14.3   827.4    0.00     195    49.8
 298   10:20   65.6    31    6.7   184     17.8   827.3    0.00     396    49.7
 298   10:30   67.6    31    6.1   182     13.7   827.1    0.00     569    49.7
 298   10:40   69.0    29    6.5   194     15.3   827.3    0.00     596    49.8
 298   10:50   69.1    29    6.3   198     13.6   827.3    0.00     606    49.9
 298   11:00   69.1    30    8.1   196     22.1   827.3    0.00     639    49.9
 298   11:10   69.1    30    7.7   204     18.6   827.6    0.00     648    50.0
 298   11:20   68.9    30    9.4   200     21.9   827.2    0.00     661    50.0
 298   11:30   68.8    31   10.5   200     18.9   827.0    0.00     664    50.1
 298   11:40   68.8    31    9.1   195     16.3   827.2    0.00     654    50.1
 298   11:50   69.2    30    9.2   204     18.9   827.0    0.00     657    50.1
 298   12:00   69.4    30    9.3   199     21.1   827.2    0.00     660    50.2
 298   12:10   69.1    29    9.7   202     21.3   827.0    0.00     664    50.3
 298   12:20   69.7    27   10.4   196     21.9   826.8    0.00     665    50.3
 298   12:30   69.3    27    9.6   189     25.4   827.4    0.00     664    50.4
 298   12:40   69.5    27    9.2   191     20.5   827.1    0.00     660    50.5
 298   12:50   69.3    30    8.4   190     21.0   827.2    0.00     637    50.5
 298   13:00   69.3    30    8.5   198     19.8   826.6    0.00     550    50.6
 298   13:10   69.3    30    9.9   199     21.9   826.6    0.00     592    50.7
 298   13:20   69.8    30    6.3   198     20.0   826.8    0.00     558    50.8
 298   13:30   70.0    30    7.0   203     15.6   826.7    0.00     534    50.8
 298   13:40   70.4    31    6.4   202     15.6   826.6    0.00     620    50.9
 298   13:50   70.4    31    7.7   196     17.5   826.4    0.00     475    51.0
 298   14:00   70.6    31    7.4   196     18.6   826.3    0.00     545    51.0
 298   14:10   70.7    32    6.8   192     18.3   826.1    0.00     527    51.1
 298   14:20   70.9    31    7.8   191     18.9   826.1    0.00     554    51.2
 298   14:30   70.7    31    9.8   195     22.9   825.8    0.00     513    51.3
 298   14:40   70.4    31   10.7   204     24.4   825.5    0.00     502    51.4
 298   14:50   70.0    32    9.7   199     20.8   825.4    0.00     355    51.4
 298   15:00   68.7    34    8.3   194     19.5   825.4    0.00     181    51.4
 298   15:10   69.2    34    7.4   198     17.5   825.3    0.00     422    51.5
 298   15:20   69.5    33    9.0   201     21.3   825.0    0.00     288    51.6
 298   15:30   69.1    33   10.2   196     23.9   825.0    0.00     328    51.7
 298   15:40   69.2    33   10.0   200     19.4   825.0    0.00     150    51.7
 298   15:50   69.3    34    7.3   196     21.5   825.0    0.00      50    51.7
 298   16:00   69.5    34    7.7   196     18.0   824.9    0.00      84    51.9
 298   16:10   68.6    34    7.2   196     15.4   824.8    0.00      89    51.9
 298   16:20   68.3    34    7.5   199     18.6   824.6    0.00      31    51.9
 298   16:30   67.9    35    7.4   196     18.3   824.6    0.00      42    52.0
 298   16:40   67.4    35    7.4   194     15.4   824.6    0.00      23    52.1
 298   16:50   66.9    35    5.7   199     13.5   824.7    0.00      22    52.1
 298   17:00   66.3    36    6.3   204     15.9   824.6    0.00      21    52.2
 298   17:10   66.0    35    7.4   193     19.1   824.4    0.00      20    52.2
 298   17:20   65.9    35    5.9   203     14.3   824.3    0.00      22    52.3
 298   17:30   65.8    35    7.4   202     19.0   824.1    0.00      18    52.3
 298   17:40   65.1    36    5.8   209     15.2   824.0    0.00      10    52.4
 298   17:50   64.8    36    6.5   200     17.8   823.9    0.00       4    52.4
 298   18:00   64.2    37    3.9   204      9.1   823.9    0.00       1    52.5
 298   18:10   63.9    38    3.8   220     14.0   824.0    0.00       0    52.5
 298   18:20   63.9    38    6.0   203     16.4   824.1    0.00       0    52.5
 298   18:30   63.8    38    6.0   199     13.4   824.2    0.00       0    52.6
 298   18:40   63.3    39    5.1   188     14.5   824.1    0.00       0    52.6
 298   18:50   62.7    39    3.6   182      8.6   823.9    0.00       0    52.6
 298   19:00   62.6    39    3.1   179      9.4   823.8    0.00       0    52.6
 298   19:10   62.5    39    4.1   195     10.4   824.0    0.00       0    52.6
 298   19:20   62.5    40    6.6   191     19.5   823.9    0.00       0    52.7
 298   19:30   62.7    40    6.4   187     15.8   824.0    0.00       0    52.7
 298   19:40   62.4    41    5.1   189     13.9   824.0    0.00       0    52.7
 298   19:50   62.0    42    3.4   184     14.1   824.0    0.00       0    52.7
 298   20:00   61.8    43    3.9   187     11.3   824.1    0.00       0    52.7
 298   20:10   61.7    43    4.2   175     14.0   824.2    0.00       0    52.7
 298   20:20   61.6    43    3.6   180     10.4   824.1    0.00       0    52.7
 298   20:30   61.6    43    5.4   184     13.1   824.1    0.00       0    52.7
 298   20:40   61.6    43    5.8   184     16.0   824.1    0.00       0    52.7
 298   20:50   61.5    43    5.8   187     21.7   824.1    0.00       0    52.7
 298   21:00   61.5    44    6.7   184     16.8   824.1    0.00       0    52.7
 298   21:10   61.5    44    6.3   187     15.6   824.2    0.00       0    52.7
 298   21:20   61.2    44    5.8   182     14.8   824.2    0.00       0    52.7
 298   21:30   61.2    43    6.1   183     16.7   824.2    0.00       0    52.7
 298   21:40   61.0    43    5.2   181     12.9   824.2    0.00       0    52.7
 298   21:50   60.9    43    4.8   183     14.1   824.1    0.00       0    52.7
 298   22:00   60.7    44    4.0   183     10.7   823.9    0.00       0    52.7
 298   22:10   60.7    45    5.9   181     16.7   823.8    0.00       0    52.6
 298   22:20   60.6    46    6.1   188     13.5   823.8    0.00       0    52.6
 298   22:30   60.7    46    7.3   191     18.6   823.9    0.00       0    52.6
 298   22:40   60.5    47    8.5   192     17.1   823.8    0.00       0    52.6
 298   22:50   60.5    46    8.7   198     20.8   823.7    0.00       0    52.6
 298   23:00   60.6    47    7.1   190     17.5   823.8    0.00       0    52.6
 298   23:10   60.3    47    9.0   189     21.6   823.7    0.00       0    52.6
 298   23:20   60.1    48    7.5   192     16.0   823.6    0.00       0    52.6
 298   23:30   60.1    48    8.6   187     22.3   823.6    0.00       0    52.6
 298   23:40   60.1    49    7.7   191     19.0   823.4    0.00       0    52.6
 298   23:50   60.0    49    7.6   197     20.1   823.3    0.00       0    52.6
 299    0:00   60.0    48    6.4   195     17.0   823.2    0.00       0    52.6
 299    0:10   60.1    48    9.1   194     20.3   823.2    0.00       0    52.6
 299    0:20   60.3    48    8.3   201     21.6   823.3    0.00       0    52.6
 299    0:30   60.0    48    6.4   206     15.3   823.4    0.00       0    52.6
 299    0:40   59.8    48    6.2   195     12.8   823.5    0.00       0    52.6
 299    0:50   59.8    48    8.0   196     16.4   823.5    0.00       0    52.6
 299    1:00   59.7    49    7.3   193     19.9   823.6    0.00       0    52.6
 299    1:10   59.3    50    6.9   190     17.6   823.6    0.00       0    52.6
 299    1:20   59.1    50    4.1   188     12.2   823.8    0.00       0    52.6
 299    1:30   58.8    51    2.9   200      8.3   823.8    0.00       0    52.6
 299    1:40   58.6    51    2.7   174     12.4   823.8    0.00       0    52.6
 299    1:50   58.7    51    2.6   173      9.4   823.8    0.00       0    52.6
 299    2:00   58.7    50    2.9   150     10.1   823.8    0.00       0    52.6
 299    2:10   58.7    50    3.0   143      9.3   823.8    0.00       0    52.6
 299    2:20   58.9    50    2.6   149      7.6   823.8    0.00       0    52.6
 299    2:30   58.5    50    3.6   164     12.5   823.7    0.00       0    52.6
 299    2:40   58.7    50    3.0   175     10.2   823.6    0.00       0    52.6

Return to Cedar City, Utah graphs page.


Western Regional Climate Center,wrcc@dri.edu